sensor_id;sensor_type;location;lat;lon;timestamp;temperature;humidity
20335;DHT22;10325;51.468;5.804;2023-03-23T00:01:22;18.50;60.60
20335;DHT22;10325;51.468;5.804;2023-03-23T00:03:53;18.40;60.60
20335;DHT22;10325;51.468;5.804;2023-03-23T00:06:27;18.40;60.60
20335;DHT22;10325;51.468;5.804;2023-03-23T00:08:55;18.40;60.60
20335;DHT22;10325;51.468;5.804;2023-03-23T00:11:28;18.40;60.70
20335;DHT22;10325;51.468;5.804;2023-03-23T00:13:58;18.30;60.60
20335;DHT22;10325;51.468;5.804;2023-03-23T00:16:31;18.40;60.70
20335;DHT22;10325;51.468;5.804;2023-03-23T00:19:07;18.40;60.80
20335;DHT22;10325;51.468;5.804;2023-03-23T00:21:37;18.40;60.70
20335;DHT22;10325;51.468;5.804;2023-03-23T00:24:13;18.30;60.80
20335;DHT22;10325;51.468;5.804;2023-03-23T00:26:44;18.30;60.80
20335;DHT22;10325;51.468;5.804;2023-03-23T00:29:17;18.30;60.80
20335;DHT22;10325;51.468;5.804;2023-03-23T00:31:47;18.30;60.80
20335;DHT22;10325;51.468;5.804;2023-03-23T00:34:18;18.30;60.80
20335;DHT22;10325;51.468;5.804;2023-03-23T00:36:55;18.30;60.90
20335;DHT22;10325;51.468;5.804;2023-03-23T00:39:28;18.30;60.90
20335;DHT22;10325;51.468;5.804;2023-03-23T00:41:55;18.20;60.80
20335;DHT22;10325;51.468;5.804;2023-03-23T00:44:28;18.20;60.80
20335;DHT22;10325;51.468;5.804;2023-03-23T00:46:57;18.20;60.90
20335;DHT22;10325;51.468;5.804;2023-03-23T00:49:28;18.20;60.80
20335;DHT22;10325;51.468;5.804;2023-03-23T00:51:57;18.20;60.90
20335;DHT22;10325;51.468;5.804;2023-03-23T00:54:26;18.20;60.90
20335;DHT22;10325;51.468;5.804;2023-03-23T00:56:55;18.20;60.90
20335;DHT22;10325;51.468;5.804;2023-03-23T00:59:26;18.20;60.90
20335;DHT22;10325;51.468;5.804;2023-03-23T01:01:54;18.20;61.00
20335;DHT22;10325;51.468;5.804;2023-03-23T01:04:23;18.20;61.00
20335;DHT22;10325;51.468;5.804;2023-03-23T01:06:50;18.20;61.10
20335;DHT22;10325;51.468;5.804;2023-03-23T01:09:20;18.20;61.00
20335;DHT22;10325;51.468;5.804;2023-03-23T01:11:58;18.10;61.00
20335;DHT22;10325;51.468;5.804;2023-03-23T01:14:27;18.20;61.10
20335;DHT22;10325;51.468;5.804;2023-03-23T01:16:54;18.20;61.10
20335;DHT22;10325;51.468;5.804;2023-03-23T01:19:22;18.20;61.10
20335;DHT22;10325;51.468;5.804;2023-03-23T01:21:48;18.10;61.10
20335;DHT22;10325;51.468;5.804;2023-03-23T01:24:15;18.10;61.00
20335;DHT22;10325;51.468;5.804;2023-03-23T01:26:43;18.10;61.10
20335;DHT22;10325;51.468;5.804;2023-03-23T01:29:12;18.10;61.10
20335;DHT22;10325;51.468;5.804;2023-03-23T01:31:41;18.10;61.10
20335;DHT22;10325;51.468;5.804;2023-03-23T01:34:09;18.10;61.10
20335;DHT22;10325;51.468;5.804;2023-03-23T01:36:36;18.10;61.10
20335;DHT22;10325;51.468;5.804;2023-03-23T01:39:06;18.20;61.20
20335;DHT22;10325;51.468;5.804;2023-03-23T01:41:34;18.10;61.10
20335;DHT22;10325;51.468;5.804;2023-03-23T01:46:49;18.10;61.10
20335;DHT22;10325;51.468;5.804;2023-03-23T01:49:42;18.10;61.10
20335;DHT22;10325;51.468;5.804;2023-03-23T01:52:18;18.10;61.10
20335;DHT22;10325;51.468;5.804;2023-03-23T01:54:53;18.10;61.20
20335;DHT22;10325;51.468;5.804;2023-03-23T01:57:25;18.10;61.20
20335;DHT22;10325;51.468;5.804;2023-03-23T01:59:54;18.10;61.10
20335;DHT22;10325;51.468;5.804;2023-03-23T02:02:23;18.10;61.20
20335;DHT22;10325;51.468;5.804;2023-03-23T02:04:51;18.10;61.20
20335;DHT22;10325;51.468;5.804;2023-03-23T02:07:22;18.10;61.30
20335;DHT22;10325;51.468;5.804;2023-03-23T02:09:51;18.10;61.20
20335;DHT22;10325;51.468;5.804;2023-03-23T02:12:19;18.10;61.20
20335;DHT22;10325;51.468;5.804;2023-03-23T02:14:47;18.10;61.20
20335;DHT22;10325;51.468;5.804;2023-03-23T02:17:46;18.10;61.30
20335;DHT22;10325;51.468;5.804;2023-03-23T02:35:03;18.00;61.20
20335;DHT22;10325;51.468;5.804;2023-03-23T02:37:38;18.00;61.20
20335;DHT22;10325;51.468;5.804;2023-03-23T02:40:17;18.00;61.30
20335;DHT22;10325;51.468;5.804;2023-03-23T02:42:50;18.00;61.20
20335;DHT22;10325;51.468;5.804;2023-03-23T02:45:20;18.00;61.30
20335;DHT22;10325;51.468;5.804;2023-03-23T02:47:50;18.00;61.30
20335;DHT22;10325;51.468;5.804;2023-03-23T02:50:21;18.00;61.20
20335;DHT22;10325;51.468;5.804;2023-03-23T02:52:54;18.00;61.30
20335;DHT22;10325;51.468;5.804;2023-03-23T02:55:23;18.00;61.30
20335;DHT22;10325;51.468;5.804;2023-03-23T02:57:52;18.00;61.30
20335;DHT22;10325;51.468;5.804;2023-03-23T03:00:23;18.00;61.30
20335;DHT22;10325;51.468;5.804;2023-03-23T03:02:53;18.00;61.30
20335;DHT22;10325;51.468;5.804;2023-03-23T03:08:52;18.00;61.30
20335;DHT22;10325;51.468;5.804;2023-03-23T03:11:22;18.00;61.20
20335;DHT22;10325;51.468;5.804;2023-03-23T03:14:06;18.00;61.30
20335;DHT22;10325;51.468;5.804;2023-03-23T03:16:58;18.00;61.40
20335;DHT22;10325;51.468;5.804;2023-03-23T03:19:33;18.00;61.30
20335;DHT22;10325;51.468;5.804;2023-03-23T03:22:01;17.90;61.30
20335;DHT22;10325;51.468;5.804;2023-03-23T03:24:29;18.00;61.40
20335;DHT22;10325;51.468;5.804;2023-03-23T03:26:59;17.90;61.40
20335;DHT22;10325;51.468;5.804;2023-03-23T03:29:33;18.00;61.40
20335;DHT22;10325;51.468;5.804;2023-03-23T03:32:20;17.90;61.40
20335;DHT22;10325;51.468;5.804;2023-03-23T03:34:53;18.00;61.40
20335;DHT22;10325;51.468;5.804;2023-03-23T03:37:23;17.90;61.60
20335;DHT22;10325;51.468;5.804;2023-03-23T03:39:49;18.00;61.50
20335;DHT22;10325;51.468;5.804;2023-03-23T03:42:17;17.90;61.50
20335;DHT22;10325;51.468;5.804;2023-03-23T03:44:45;17.90;61.50
20335;DHT22;10325;51.468;5.804;2023-03-23T03:47:12;17.90;61.50
20335;DHT22;10325;51.468;5.804;2023-03-23T03:49:41;17.90;61.50
20335;DHT22;10325;51.468;5.804;2023-03-23T03:52:10;17.90;61.50
20335;DHT22;10325;51.468;5.804;2023-03-23T03:54:37;17.90;61.50
20335;DHT22;10325;51.468;5.804;2023-03-23T03:57:05;18.00;61.50
20335;DHT22;10325;51.468;5.804;2023-03-23T03:59:33;18.00;61.60
20335;DHT22;10325;51.468;5.804;2023-03-23T04:02:02;18.00;61.60
20335;DHT22;10325;51.468;5.804;2023-03-23T04:04:31;17.90;61.50
20335;DHT22;10325;51.468;5.804;2023-03-23T04:06:58;17.90;61.50
20335;DHT22;10325;51.468;5.804;2023-03-23T04:09:24;18.00;61.50
20335;DHT22;10325;51.468;5.804;2023-03-23T04:11:53;18.00;61.60
20335;DHT22;10325;51.468;5.804;2023-03-23T04:14:21;18.00;61.60
20335;DHT22;10325;51.468;5.804;2023-03-23T04:16:48;18.00;61.60
20335;DHT22;10325;51.468;5.804;2023-03-23T04:19:18;18.00;61.50
20335;DHT22;10325;51.468;5.804;2023-03-23T04:21:45;17.90;61.50
20335;DHT22;10325;51.468;5.804;2023-03-23T04:24:16;18.00;61.50
20335;DHT22;10325;51.468;5.804;2023-03-23T04:26:42;18.00;61.50
20335;DHT22;10325;51.468;5.804;2023-03-23T04:29:12;17.90;61.50
20335;DHT22;10325;51.468;5.804;2023-03-23T04:31:42;17.90;61.50
20335;DHT22;10325;51.468;5.804;2023-03-23T04:34:16;18.00;61.60
20335;DHT22;10325;51.468;5.804;2023-03-23T04:36:43;17.90;61.60
20335;DHT22;10325;51.468;5.804;2023-03-23T04:39:12;17.90;61.60
20335;DHT22;10325;51.468;5.804;2023-03-23T04:41:42;17.90;61.50
20335;DHT22;10325;51.468;5.804;2023-03-23T04:44:09;17.90;61.60
20335;DHT22;10325;51.468;5.804;2023-03-23T04:46:37;17.90;61.50
20335;DHT22;10325;51.468;5.804;2023-03-23T04:49:05;18.00;61.60
20335;DHT22;10325;51.468;5.804;2023-03-23T04:51:33;17.90;61.60
20335;DHT22;10325;51.468;5.804;2023-03-23T04:54:04;17.90;61.60
20335;DHT22;10325;51.468;5.804;2023-03-23T04:56:32;17.90;61.50
20335;DHT22;10325;51.468;5.804;2023-03-23T04:58:59;17.90;61.50
20335;DHT22;10325;51.468;5.804;2023-03-23T05:01:28;17.90;61.60
20335;DHT22;10325;51.468;5.804;2023-03-23T05:03:57;17.90;61.60
20335;DHT22;10325;51.468;5.804;2023-03-23T05:06:24;17.90;61.50
20335;DHT22;10325;51.468;5.804;2023-03-23T05:08:55;17.90;61.50
20335;DHT22;10325;51.468;5.804;2023-03-23T05:11:23;17.90;61.50
20335;DHT22;10325;51.468;5.804;2023-03-23T05:13:54;17.90;61.50
20335;DHT22;10325;51.468;5.804;2023-03-23T05:16:21;17.90;61.50
20335;DHT22;10325;51.468;5.804;2023-03-23T05:18:48;17.90;61.50
20335;DHT22;10325;51.468;5.804;2023-03-23T05:21:16;17.90;61.50
20335;DHT22;10325;51.468;5.804;2023-03-23T05:23:44;17.90;61.50
20335;DHT22;10325;51.468;5.804;2023-03-23T05:26:11;17.90;61.50
20335;DHT22;10325;51.468;5.804;2023-03-23T05:28:39;17.90;61.50
20335;DHT22;10325;51.468;5.804;2023-03-23T05:31:09;17.90;61.50
20335;DHT22;10325;51.468;5.804;2023-03-23T05:33:36;17.90;61.50
20335;DHT22;10325;51.468;5.804;2023-03-23T05:36:06;17.90;61.50
20335;DHT22;10325;51.468;5.804;2023-03-23T05:38:35;17.90;61.50
20335;DHT22;10325;51.468;5.804;2023-03-23T05:41:05;17.90;61.50
20335;DHT22;10325;51.468;5.804;2023-03-23T05:43:35;17.90;61.50
20335;DHT22;10325;51.468;5.804;2023-03-23T05:46:05;17.90;61.50
20335;DHT22;10325;51.468;5.804;2023-03-23T05:48:38;17.90;61.50
20335;DHT22;10325;51.468;5.804;2023-03-23T05:51:05;17.90;61.50
20335;DHT22;10325;51.468;5.804;2023-03-23T05:53:32;17.80;61.40
20335;DHT22;10325;51.468;5.804;2023-03-23T05:56:02;17.90;61.40
20335;DHT22;10325;51.468;5.804;2023-03-23T05:58:32;17.90;61.40
20335;DHT22;10325;51.468;5.804;2023-03-23T06:00:59;17.90;61.50
20335;DHT22;10325;51.468;5.804;2023-03-23T06:03:25;17.90;61.90
20335;DHT22;10325;51.468;5.804;2023-03-23T06:05:53;17.90;61.40
20335;DHT22;10325;51.468;5.804;2023-03-23T06:08:22;17.90;62.30
20335;DHT22;10325;51.468;5.804;2023-03-23T06:10:49;17.90;62.90
20335;DHT22;10325;51.468;5.804;2023-03-23T06:13:18;17.90;62.80
20335;DHT22;10325;51.468;5.804;2023-03-23T06:15:46;17.90;62.50
20335;DHT22;10325;51.468;5.804;2023-03-23T06:18:13;17.90;62.50
20335;DHT22;10325;51.468;5.804;2023-03-23T06:20:41;17.90;62.50
20335;DHT22;10325;51.468;5.804;2023-03-23T06:23:13;17.90;62.70
20335;DHT22;10325;51.468;5.804;2023-03-23T06:25:41;17.90;62.80
20335;DHT22;10325;51.468;5.804;2023-03-23T06:28:11;17.90;62.60
20335;DHT22;10325;51.468;5.804;2023-03-23T06:30:39;18.00;62.50
20335;DHT22;10325;51.468;5.804;2023-03-23T06:33:06;17.90;62.50
20335;DHT22;10325;51.468;5.804;2023-03-23T06:35:37;17.90;62.40
20335;DHT22;10325;51.468;5.804;2023-03-23T06:38:05;17.90;62.40
20335;DHT22;10325;51.468;5.804;2023-03-23T06:40:33;17.90;62.30
20335;DHT22;10325;51.468;5.804;2023-03-23T06:43:04;17.90;62.30
20335;DHT22;10325;51.468;5.804;2023-03-23T06:45:30;17.90;62.10
20335;DHT22;10325;51.468;5.804;2023-03-23T06:47:58;17.90;62.00
20335;DHT22;10325;51.468;5.804;2023-03-23T06:50:26;17.90;61.90
20335;DHT22;10325;51.468;5.804;2023-03-23T06:52:54;17.90;62.00
20335;DHT22;10325;51.468;5.804;2023-03-23T06:55:22;17.90;62.00
20335;DHT22;10325;51.468;5.804;2023-03-23T06:57:50;17.90;62.00
20335;DHT22;10325;51.468;5.804;2023-03-23T07:00:19;17.90;61.90
20335;DHT22;10325;51.468;5.804;2023-03-23T07:02:46;17.90;61.90
20335;DHT22;10325;51.468;5.804;2023-03-23T07:05:13;17.90;61.80
20335;DHT22;10325;51.468;5.804;2023-03-23T07:07:42;17.90;61.70
20335;DHT22;10325;51.468;5.804;2023-03-23T07:10:12;17.90;61.70
20335;DHT22;10325;51.468;5.804;2023-03-23T07:12:41;17.90;61.70
20335;DHT22;10325;51.468;5.804;2023-03-23T07:15:08;17.90;61.60
20335;DHT22;10325;51.468;5.804;2023-03-23T07:17:39;17.90;61.50
20335;DHT22;10325;51.468;5.804;2023-03-23T07:20:11;17.90;61.50
20335;DHT22;10325;51.468;5.804;2023-03-23T07:22:40;17.90;61.30
20335;DHT22;10325;51.468;5.804;2023-03-23T07:25:09;17.90;61.30
20335;DHT22;10325;51.468;5.804;2023-03-23T07:27:36;17.90;61.20
20335;DHT22;10325;51.468;5.804;2023-03-23T07:30:05;18.00;61.30
20335;DHT22;10325;51.468;5.804;2023-03-23T07:32:33;17.90;61.20
20335;DHT22;10325;51.468;5.804;2023-03-23T07:35:01;17.90;61.10
20335;DHT22;10325;51.468;5.804;2023-03-23T07:37:31;17.90;61.10
20335;DHT22;10325;51.468;5.804;2023-03-23T07:40:04;17.90;61.10
20335;DHT22;10325;51.468;5.804;2023-03-23T07:42:43;17.90;61.00
20335;DHT22;10325;51.468;5.804;2023-03-23T07:45:13;17.90;61.00
20335;DHT22;10325;51.468;5.804;2023-03-23T07:47:41;18.00;61.00
20335;DHT22;10325;51.468;5.804;2023-03-23T07:50:08;18.00;61.00
20335;DHT22;10325;51.468;5.804;2023-03-23T07:52:37;18.00;60.90
20335;DHT22;10325;51.468;5.804;2023-03-23T07:55:05;17.90;60.80
20335;DHT22;10325;51.468;5.804;2023-03-23T07:57:36;18.00;60.80
20335;DHT22;10325;51.468;5.804;2023-03-23T08:00:06;17.90;60.80
20335;DHT22;10325;51.468;5.804;2023-03-23T08:02:55;17.90;60.80
20335;DHT22;10325;51.468;5.804;2023-03-23T08:05:26;17.90;60.80
20335;DHT22;10325;51.468;5.804;2023-03-23T08:07:54;17.90;60.70
20335;DHT22;10325;51.468;5.804;2023-03-23T08:10:21;17.90;60.80
20335;DHT22;10325;51.468;5.804;2023-03-23T08:12:55;17.90;60.70
20335;DHT22;10325;51.468;5.804;2023-03-23T08:15:24;17.90;60.70
20335;DHT22;10325;51.468;5.804;2023-03-23T08:17:51;17.90;60.70
20335;DHT22;10325;51.468;5.804;2023-03-23T08:20:21;17.90;60.70
20335;DHT22;10325;51.468;5.804;2023-03-23T08:22:54;17.90;60.70
20335;DHT22;10325;51.468;5.804;2023-03-23T08:25:23;17.90;60.70
20335;DHT22;10325;51.468;5.804;2023-03-23T08:27:53;17.90;60.70
20335;DHT22;10325;51.468;5.804;2023-03-23T08:30:23;17.90;60.70
20335;DHT22;10325;51.468;5.804;2023-03-23T08:32:54;17.90;60.70
20335;DHT22;10325;51.468;5.804;2023-03-23T08:35:21;18.00;60.80
20335;DHT22;10325;51.468;5.804;2023-03-23T08:37:50;17.90;60.70
20335;DHT22;10325;51.468;5.804;2023-03-23T08:40:21;17.90;60.70
20335;DHT22;10325;51.468;5.804;2023-03-23T08:42:49;17.90;60.70
20335;DHT22;10325;51.468;5.804;2023-03-23T08:45:23;17.90;60.70
20335;DHT22;10325;51.468;5.804;2023-03-23T08:47:54;17.90;60.70
20335;DHT22;10325;51.468;5.804;2023-03-23T08:50:24;18.00;60.70
20335;DHT22;10325;51.468;5.804;2023-03-23T08:52:51;17.90;60.70
20335;DHT22;10325;51.468;5.804;2023-03-23T08:55:21;17.90;60.60
20335;DHT22;10325;51.468;5.804;2023-03-23T08:57:52;17.90;60.60
20335;DHT22;10325;51.468;5.804;2023-03-23T09:00:20;18.00;60.60
20335;DHT22;10325;51.468;5.804;2023-03-23T09:02:56;17.90;60.50
20335;DHT22;10325;51.468;5.804;2023-03-23T09:05:33;18.00;60.60
20335;DHT22;10325;51.468;5.804;2023-03-23T09:08:04;17.90;60.50
20335;DHT22;10325;51.468;5.804;2023-03-23T09:10:32;17.90;60.50
20335;DHT22;10325;51.468;5.804;2023-03-23T09:12:59;17.90;60.50
20335;DHT22;10325;51.468;5.804;2023-03-23T09:15:31;18.00;60.50
20335;DHT22;10325;51.468;5.804;2023-03-23T09:18:01;18.00;60.50
20335;DHT22;10325;51.468;5.804;2023-03-23T09:20:29;18.00;60.50
20335;DHT22;10325;51.468;5.804;2023-03-23T09:22:58;17.90;60.50
20335;DHT22;10325;51.468;5.804;2023-03-23T09:25:27;17.90;60.50
20335;DHT22;10325;51.468;5.804;2023-03-23T09:28:15;17.90;60.50
20335;DHT22;10325;51.468;5.804;2023-03-23T09:30:43;17.90;60.40
20335;DHT22;10325;51.468;5.804;2023-03-23T09:33:11;17.90;60.40
20335;DHT22;10325;51.468;5.804;2023-03-23T09:35:38;18.00;60.40
20335;DHT22;10325;51.468;5.804;2023-03-23T09:38:10;17.90;60.40
20335;DHT22;10325;51.468;5.804;2023-03-23T09:41:02;18.00;60.40
20335;DHT22;10325;51.468;5.804;2023-03-23T09:44:03;18.00;60.40
20335;DHT22;10325;51.468;5.804;2023-03-23T09:46:56;18.00;60.40
20335;DHT22;10325;51.468;5.804;2023-03-23T09:49:37;18.00;60.40
20335;DHT22;10325;51.468;5.804;2023-03-23T09:52:16;17.90;60.20
20335;DHT22;10325;51.468;5.804;2023-03-23T09:54:55;18.00;60.30
20335;DHT22;10325;51.468;5.804;2023-03-23T09:57:43;17.90;60.20
20335;DHT22;10325;51.468;5.804;2023-03-23T10:00:32;18.00;60.20
20335;DHT22;10325;51.468;5.804;2023-03-23T10:03:17;17.90;60.20
20335;DHT22;10325;51.468;5.804;2023-03-23T10:05:50;17.90;60.10
20335;DHT22;10325;51.468;5.804;2023-03-23T10:08:29;18.00;60.20
20335;DHT22;10325;51.468;5.804;2023-03-23T10:11:08;17.90;60.10
20335;DHT22;10325;51.468;5.804;2023-03-23T10:14:15;18.00;60.20
20335;DHT22;10325;51.468;5.804;2023-03-23T10:17:13;18.00;60.10
20335;DHT22;10325;51.468;5.804;2023-03-23T10:19:54;17.90;60.10
20335;DHT22;10325;51.468;5.804;2023-03-23T10:22:34;17.90;60.10
20335;DHT22;10325;51.468;5.804;2023-03-23T10:25:22;17.90;60.20
20335;DHT22;10325;51.468;5.804;2023-03-23T10:28:10;17.90;60.10
20335;DHT22;10325;51.468;5.804;2023-03-23T10:30:59;17.90;60.10
20335;DHT22;10325;51.468;5.804;2023-03-23T10:33:36;18.00;60.10
20335;DHT22;10325;51.468;5.804;2023-03-23T10:36:26;18.00;60.20
20335;DHT22;10325;51.468;5.804;2023-03-23T10:39:19;18.00;60.10
20335;DHT22;10325;51.468;5.804;2023-03-23T10:41:49;18.00;60.20
20335;DHT22;10325;51.468;5.804;2023-03-23T10:44:20;18.00;60.20
20335;DHT22;10325;51.468;5.804;2023-03-23T10:46:58;18.00;60.20
20335;DHT22;10325;51.468;5.804;2023-03-23T10:52:37;18.00;60.10
20335;DHT22;10325;51.468;5.804;2023-03-23T10:55:21;18.00;60.10
20335;DHT22;10325;51.468;5.804;2023-03-23T10:58:24;18.00;60.10
20335;DHT22;10325;51.468;5.804;2023-03-23T11:00:52;18.00;60.10
20335;DHT22;10325;51.468;5.804;2023-03-23T11:06:11;18.00;60.10
20335;DHT22;10325;51.468;5.804;2023-03-23T11:09:01;18.00;60.10
20335;DHT22;10325;51.468;5.804;2023-03-23T11:11:37;18.00;60.10
20335;DHT22;10325;51.468;5.804;2023-03-23T11:14:30;18.00;60.10
20335;DHT22;10325;51.468;5.804;2023-03-23T11:17:00;18.00;60.10
20335;DHT22;10325;51.468;5.804;2023-03-23T11:19:34;18.00;60.10
20335;DHT22;10325;51.468;5.804;2023-03-23T11:22:24;18.00;60.10
20335;DHT22;10325;51.468;5.804;2023-03-23T11:25:08;18.10;60.10
20335;DHT22;10325;51.468;5.804;2023-03-23T11:27:38;18.00;60.10
20335;DHT22;10325;51.468;5.804;2023-03-23T11:30:35;18.00;60.10
20335;DHT22;10325;51.468;5.804;2023-03-23T11:33:03;18.10;60.10
20335;DHT22;10325;51.468;5.804;2023-03-23T11:35:32;18.00;60.20
20335;DHT22;10325;51.468;5.804;2023-03-23T11:38:01;18.10;60.10
20335;DHT22;10325;51.468;5.804;2023-03-23T11:40:33;18.10;60.10
20335;DHT22;10325;51.468;5.804;2023-03-23T11:43:23;18.10;60.10
20335;DHT22;10325;51.468;5.804;2023-03-23T11:46:11;18.10;60.10
20335;DHT22;10325;51.468;5.804;2023-03-23T11:48:57;18.10;60.10
20335;DHT22;10325;51.468;5.804;2023-03-23T11:51:47;18.10;60.10
20335;DHT22;10325;51.468;5.804;2023-03-23T11:54:39;18.10;60.10
20335;DHT22;10325;51.468;5.804;2023-03-23T11:57:18;18.10;60.00
20335;DHT22;10325;51.468;5.804;2023-03-23T11:59:45;18.10;60.10
20335;DHT22;10325;51.468;5.804;2023-03-23T12:02:45;18.10;60.70
20335;DHT22;10325;51.468;5.804;2023-03-23T12:05:45;18.10;60.60
20335;DHT22;10325;51.468;5.804;2023-03-23T12:08:39;18.10;60.00
20335;DHT22;10325;51.468;5.804;2023-03-23T12:11:37;18.10;60.00
20335;DHT22;10325;51.468;5.804;2023-03-23T12:14:22;18.10;60.00
20335;DHT22;10325;51.468;5.804;2023-03-23T12:20:31;18.10;59.90
20335;DHT22;10325;51.468;5.804;2023-03-23T12:48:18;18.20;60.00
20335;DHT22;10325;51.468;5.804;2023-03-23T12:59:46;18.20;60.10
20335;DHT22;10325;51.468;5.804;2023-03-23T13:02:23;18.20;60.00
20335;DHT22;10325;51.468;5.804;2023-03-23T13:07:59;18.20;59.90
20335;DHT22;10325;51.468;5.804;2023-03-23T13:10:41;18.20;60.00
20335;DHT22;10325;51.468;5.804;2023-03-23T13:13:23;18.30;60.00
20335;DHT22;10325;51.468;5.804;2023-03-23T13:16:11;18.30;59.90
20335;DHT22;10325;51.468;5.804;2023-03-23T13:19:13;18.30;59.90
20335;DHT22;10325;51.468;5.804;2023-03-23T13:22:14;18.40;59.90
20335;DHT22;10325;51.468;5.804;2023-03-23T13:24:56;18.30;59.90
20335;DHT22;10325;51.468;5.804;2023-03-23T13:27:29;18.30;59.90
20335;DHT22;10325;51.468;5.804;2023-03-23T13:30:00;18.30;60.00
20335;DHT22;10325;51.468;5.804;2023-03-23T13:32:39;18.40;60.00
20335;DHT22;10325;51.468;5.804;2023-03-23T13:35:17;18.40;60.00
20335;DHT22;10325;51.468;5.804;2023-03-23T13:37:59;18.40;60.00
20335;DHT22;10325;51.468;5.804;2023-03-23T13:40:31;18.30;59.90
20335;DHT22;10325;51.468;5.804;2023-03-23T13:42:59;18.40;59.90
20335;DHT22;10325;51.468;5.804;2023-03-23T13:51:00;18.40;59.90
20335;DHT22;10325;51.468;5.804;2023-03-23T13:53:46;18.40;59.80
20335;DHT22;10325;51.468;5.804;2023-03-23T13:56:41;18.30;59.70
20335;DHT22;10325;51.468;5.804;2023-03-23T13:59:55;18.40;59.80
20335;DHT22;10325;51.468;5.804;2023-03-23T14:02:37;18.40;59.60
20335;DHT22;10325;51.468;5.804;2023-03-23T14:10:59;18.40;59.50
20335;DHT22;10325;51.468;5.804;2023-03-23T14:13:33;18.40;59.40
20335;DHT22;10325;51.468;5.804;2023-03-23T14:16:15;18.40;59.50
20335;DHT22;10325;51.468;5.804;2023-03-23T14:18:59;18.40;59.30
20335;DHT22;10325;51.468;5.804;2023-03-23T14:21:39;18.40;59.60
20335;DHT22;10325;51.468;5.804;2023-03-23T14:24:20;18.40;59.60
20335;DHT22;10325;51.468;5.804;2023-03-23T14:26:49;18.40;59.70
20335;DHT22;10325;51.468;5.804;2023-03-23T14:29:22;18.40;59.70
20335;DHT22;10325;51.468;5.804;2023-03-23T14:31:58;18.40;59.70
20335;DHT22;10325;51.468;5.804;2023-03-23T14:34:30;18.40;59.80
20335;DHT22;10325;51.468;5.804;2023-03-23T14:36:58;18.50;60.00
20335;DHT22;10325;51.468;5.804;2023-03-23T14:39:32;18.40;60.00
20335;DHT22;10325;51.468;5.804;2023-03-23T14:42:06;18.40;60.20
20335;DHT22;10325;51.468;5.804;2023-03-23T14:44:42;18.40;60.30
20335;DHT22;10325;51.468;5.804;2023-03-23T14:49:57;18.40;60.20
20335;DHT22;10325;51.468;5.804;2023-03-23T14:52:29;18.50;60.20
20335;DHT22;10325;51.468;5.804;2023-03-23T14:55:20;18.40;60.30
20335;DHT22;10325;51.468;5.804;2023-03-23T14:57:54;18.40;60.20
20335;DHT22;10325;51.468;5.804;2023-03-23T15:00:28;18.40;60.30
20335;DHT22;10325;51.468;5.804;2023-03-23T15:03:01;18.40;60.30
20335;DHT22;10325;51.468;5.804;2023-03-23T15:05:37;18.50;60.30
20335;DHT22;10325;51.468;5.804;2023-03-23T15:08:28;18.50;60.30
20335;DHT22;10325;51.468;5.804;2023-03-23T15:11:21;18.50;60.30
20335;DHT22;10325;51.468;5.804;2023-03-23T15:13:54;18.50;60.30
20335;DHT22;10325;51.468;5.804;2023-03-23T15:16:27;18.50;60.30
20335;DHT22;10325;51.468;5.804;2023-03-23T15:19:00;18.50;60.30
20335;DHT22;10325;51.468;5.804;2023-03-23T15:22:12;18.50;60.20
20335;DHT22;10325;51.468;5.804;2023-03-23T15:24:44;18.50;60.20
20335;DHT22;10325;51.468;5.804;2023-03-23T15:27:17;18.50;60.20
20335;DHT22;10325;51.468;5.804;2023-03-23T15:29:59;18.50;60.20
20335;DHT22;10325;51.468;5.804;2023-03-23T15:32:42;18.50;60.20
20335;DHT22;10325;51.468;5.804;2023-03-23T15:35:20;18.50;60.10
20335;DHT22;10325;51.468;5.804;2023-03-23T15:37:59;18.50;60.20
20335;DHT22;10325;51.468;5.804;2023-03-23T15:40:32;18.50;60.20
20335;DHT22;10325;51.468;5.804;2023-03-23T15:48:51;18.50;60.20
20335;DHT22;10325;51.468;5.804;2023-03-23T15:51:19;18.50;60.30
20335;DHT22;10325;51.468;5.804;2023-03-23T15:53:50;18.50;60.20
20335;DHT22;10325;51.468;5.804;2023-03-23T15:56:17;18.50;60.30
20335;DHT22;10325;51.468;5.804;2023-03-23T15:58:45;18.50;60.40
20335;DHT22;10325;51.468;5.804;2023-03-23T16:01:24;18.50;60.40
20335;DHT22;10325;51.468;5.804;2023-03-23T16:04:14;18.50;60.50
20335;DHT22;10325;51.468;5.804;2023-03-23T16:06:58;18.50;60.40
20335;DHT22;10325;51.468;5.804;2023-03-23T16:09:28;18.50;60.40
20335;DHT22;10325;51.468;5.804;2023-03-23T16:12:00;18.50;60.40
20335;DHT22;10325;51.468;5.804;2023-03-23T16:14:30;18.50;60.50
20335;DHT22;10325;51.468;5.804;2023-03-23T16:17:00;18.50;60.50
20335;DHT22;10325;51.468;5.804;2023-03-23T16:19:29;18.50;60.60
20335;DHT22;10325;51.468;5.804;2023-03-23T16:22:00;18.50;60.50
20335;DHT22;10325;51.468;5.804;2023-03-23T16:24:31;18.50;60.50
20335;DHT22;10325;51.468;5.804;2023-03-23T16:27:01;18.50;60.50
20335;DHT22;10325;51.468;5.804;2023-03-23T16:29:29;18.50;60.50
20335;DHT22;10325;51.468;5.804;2023-03-23T16:32:23;18.50;60.50
20335;DHT22;10325;51.468;5.804;2023-03-23T16:34:55;18.40;60.50
20335;DHT22;10325;51.468;5.804;2023-03-23T16:37:26;18.50;60.50
20335;DHT22;10325;51.468;5.804;2023-03-23T16:40:19;18.50;61.20
20335;DHT22;10325;51.468;5.804;2023-03-23T16:42:52;18.50;60.60
20335;DHT22;10325;51.468;5.804;2023-03-23T16:45:26;18.40;60.60
20335;DHT22;10325;51.468;5.804;2023-03-23T16:47:56;18.50;60.70
20335;DHT22;10325;51.468;5.804;2023-03-23T16:50:32;18.50;60.70
20335;DHT22;10325;51.468;5.804;2023-03-23T16:53:01;18.50;60.60
20335;DHT22;10325;51.468;5.804;2023-03-23T16:55:34;18.50;60.60
20335;DHT22;10325;51.468;5.804;2023-03-23T16:58:03;18.50;60.50
20335;DHT22;10325;51.468;5.804;2023-03-23T17:00:49;18.50;60.60
20335;DHT22;10325;51.468;5.804;2023-03-23T17:03:23;18.50;60.60
20335;DHT22;10325;51.468;5.804;2023-03-23T17:05:51;18.50;60.60
20335;DHT22;10325;51.468;5.804;2023-03-23T17:08:21;18.50;60.70
20335;DHT22;10325;51.468;5.804;2023-03-23T17:10:50;18.50;60.50
20335;DHT22;10325;51.468;5.804;2023-03-23T17:13:21;18.50;60.50
20335;DHT22;10325;51.468;5.804;2023-03-23T17:15:55;18.50;61.20
20335;DHT22;10325;51.468;5.804;2023-03-23T17:18:26;18.40;60.60
20335;DHT22;10325;51.468;5.804;2023-03-23T17:20:59;18.50;60.50
20335;DHT22;10325;51.468;5.804;2023-03-23T17:23:29;18.50;60.50
20335;DHT22;10325;51.468;5.804;2023-03-23T17:26:06;18.40;60.40
20335;DHT22;10325;51.468;5.804;2023-03-23T17:28:39;18.50;60.50
20335;DHT22;10325;51.468;5.804;2023-03-23T17:31:08;18.50;60.60
20335;DHT22;10325;51.468;5.804;2023-03-23T17:33:52;18.50;60.50
20335;DHT22;10325;51.468;5.804;2023-03-23T17:36:23;18.50;60.60
20335;DHT22;10325;51.468;5.804;2023-03-23T17:38:53;18.50;60.60